sensor_id;sensor_type;location;lat;lon;timestamp;P1;durP1;ratioP1;P2;durP2;ratioP2
70796;SDS011;63842;52.144;5.360;2022-11-13T00:01:38;17.23;;;8.93;;
70796;SDS011;63842;52.144;5.360;2022-11-13T00:04:24;20.38;;;9.50;;
70796;SDS011;63842;52.144;5.360;2022-11-13T00:07:09;18.67;;;9.32;;
70796;SDS011;63842;52.144;5.360;2022-11-13T00:09:55;18.55;;;8.93;;
70796;SDS011;63842;52.144;5.360;2022-11-13T00:12:41;16.70;;;8.60;;
70796;SDS011;63842;52.144;5.360;2022-11-13T00:15:27;16.30;;;8.55;;
70796;SDS011;63842;52.144;5.360;2022-11-13T00:18:13;16.20;;;8.98;;
70796;SDS011;63842;52.144;5.360;2022-11-13T00:21:06;16.10;;;8.07;;
70796;SDS011;63842;52.144;5.360;2022-11-13T00:23:52;18.90;;;8.15;;
70796;SDS011;63842;52.144;5.360;2022-11-13T00:26:39;15.93;;;8.65;;
70796;SDS011;63842;52.144;5.360;2022-11-13T00:29:26;17.40;;;8.43;;
70796;SDS011;63842;52.144;5.360;2022-11-13T00:32:12;16.42;;;8.38;;
70796;SDS011;63842;52.144;5.360;2022-11-13T00:34:58;15.43;;;8.18;;
70796;SDS011;63842;52.144;5.360;2022-11-13T00:37:44;15.90;;;8.05;;
70796;SDS011;63842;52.144;5.360;2022-11-13T00:40:30;15.65;;;8.15;;
70796;SDS011;63842;52.144;5.360;2022-11-13T00:43:16;15.50;;;7.75;;
70796;SDS011;63842;52.144;5.360;2022-11-13T00:46:02;17.60;;;8.70;;
70796;SDS011;63842;52.144;5.360;2022-11-13T00:48:47;15.85;;;7.97;;
70796;SDS011;63842;52.144;5.360;2022-11-13T00:51:33;15.60;;;8.07;;
70796;SDS011;63842;52.144;5.360;2022-11-13T00:54:19;16.13;;;7.80;;
70796;SDS011;63842;52.144;5.360;2022-11-13T00:57:05;18.45;;;8.27;;
70796;SDS011;63842;52.144;5.360;2022-11-13T00:59:51;16.10;;;8.38;;
70796;SDS011;63842;52.144;5.360;2022-11-13T01:02:37;16.13;;;8.02;;
70796;SDS011;63842;52.144;5.360;2022-11-13T01:05:23;14.43;;;7.65;;
70796;SDS011;63842;52.144;5.360;2022-11-13T01:08:09;16.23;;;7.90;;
70796;SDS011;63842;52.144;5.360;2022-11-13T01:10:55;16.38;;;8.05;;
70796;SDS011;63842;52.144;5.360;2022-11-13T01:13:42;15.05;;;8.00;;
70796;SDS011;63842;52.144;5.360;2022-11-13T01:16:28;14.25;;;7.25;;
70796;SDS011;63842;52.144;5.360;2022-11-13T01:19:14;15.80;;;7.57;;
70796;SDS011;63842;52.144;5.360;2022-11-13T01:22:00;16.75;;;7.65;;
70796;SDS011;63842;52.144;5.360;2022-11-13T01:24:46;15.68;;;8.13;;
70796;SDS011;63842;52.144;5.360;2022-11-13T01:27:34;15.05;;;7.63;;
70796;SDS011;63842;52.144;5.360;2022-11-13T01:30:20;15.70;;;7.65;;
70796;SDS011;63842;52.144;5.360;2022-11-13T01:33:06;15.93;;;6.75;;
70796;SDS011;63842;52.144;5.360;2022-11-13T01:35:54;17.65;;;7.57;;
70796;SDS011;63842;52.144;5.360;2022-11-13T01:38:44;16.88;;;7.70;;
70796;SDS011;63842;52.144;5.360;2022-11-13T01:41:32;17.27;;;7.75;;
70796;SDS011;63842;52.144;5.360;2022-11-13T01:44:18;15.00;;;7.70;;
70796;SDS011;63842;52.144;5.360;2022-11-13T01:47:04;16.90;;;7.40;;
70796;SDS011;63842;52.144;5.360;2022-11-13T01:49:52;15.10;;;7.15;;
70796;SDS011;63842;52.144;5.360;2022-11-13T01:52:39;14.50;;;7.72;;
70796;SDS011;63842;52.144;5.360;2022-11-13T01:55:25;14.15;;;7.85;;
70796;SDS011;63842;52.144;5.360;2022-11-13T01:58:11;14.65;;;7.32;;
70796;SDS011;63842;52.144;5.360;2022-11-13T02:00:58;19.50;;;7.72;;
70796;SDS011;63842;52.144;5.360;2022-11-13T02:03:44;14.68;;;7.43;;
70796;SDS011;63842;52.144;5.360;2022-11-13T02:06:32;14.23;;;7.35;;
70796;SDS011;63842;52.144;5.360;2022-11-13T02:09:25;15.55;;;8.45;;
70796;SDS011;63842;52.144;5.360;2022-11-13T02:12:12;17.85;;;8.63;;
70796;SDS011;63842;52.144;5.360;2022-11-13T02:15:07;17.42;;;8.48;;
70796;SDS011;63842;52.144;5.360;2022-11-13T02:17:54;16.27;;;7.95;;
70796;SDS011;63842;52.144;5.360;2022-11-13T02:20:44;15.93;;;7.72;;
70796;SDS011;63842;52.144;5.360;2022-11-13T02:26:26;14.80;;;7.97;;
70796;SDS011;63842;52.144;5.360;2022-11-13T02:29:13;16.95;;;8.13;;
70796;SDS011;63842;52.144;5.360;2022-11-13T02:31:59;16.83;;;7.88;;
70796;SDS011;63842;52.144;5.360;2022-11-13T02:34:45;16.50;;;8.18;;
70796;SDS011;63842;52.144;5.360;2022-11-13T02:37:31;16.58;;;8.38;;
70796;SDS011;63842;52.144;5.360;2022-11-13T02:40:17;15.93;;;7.65;;
70796;SDS011;63842;52.144;5.360;2022-11-13T02:43:04;16.08;;;7.85;;
70796;SDS011;63842;52.144;5.360;2022-11-13T02:45:50;14.25;;;7.32;;
70796;SDS011;63842;52.144;5.360;2022-11-13T02:48:36;13.82;;;7.43;;
70796;SDS011;63842;52.144;5.360;2022-11-13T02:51:22;13.70;;;7.45;;
70796;SDS011;63842;52.144;5.360;2022-11-13T02:54:08;15.73;;;7.75;;
70796;SDS011;63842;52.144;5.360;2022-11-13T02:57:00;13.60;;;6.95;;
70796;SDS011;63842;52.144;5.360;2022-11-13T02:59:47;15.77;;;7.25;;
70796;SDS011;63842;52.144;5.360;2022-11-13T03:02:33;15.05;;;7.25;;
70796;SDS011;63842;52.144;5.360;2022-11-13T03:05:20;13.95;;;7.15;;
70796;SDS011;63842;52.144;5.360;2022-11-13T03:08:06;13.27;;;7.20;;
70796;SDS011;63842;52.144;5.360;2022-11-13T03:10:52;16.40;;;7.50;;
70796;SDS011;63842;52.144;5.360;2022-11-13T03:13:38;15.27;;;7.25;;
70796;SDS011;63842;52.144;5.360;2022-11-13T03:16:25;12.93;;;6.88;;
70796;SDS011;63842;52.144;5.360;2022-11-13T03:19:10;13.80;;;7.72;;
70796;SDS011;63842;52.144;5.360;2022-11-13T03:21:56;15.38;;;7.20;;
70796;SDS011;63842;52.144;5.360;2022-11-13T03:24:42;13.63;;;7.43;;
70796;SDS011;63842;52.144;5.360;2022-11-13T03:27:29;17.52;;;7.55;;
70796;SDS011;63842;52.144;5.360;2022-11-13T03:30:15;15.70;;;7.38;;
70796;SDS011;63842;52.144;5.360;2022-11-13T03:33:01;13.02;;;7.20;;
70796;SDS011;63842;52.144;5.360;2022-11-13T03:35:47;13.48;;;6.95;;
70796;SDS011;63842;52.144;5.360;2022-11-13T03:38:33;14.23;;;7.38;;
70796;SDS011;63842;52.144;5.360;2022-11-13T03:41:20;15.55;;;7.13;;
70796;SDS011;63842;52.144;5.360;2022-11-13T03:44:06;13.63;;;7.03;;
70796;SDS011;63842;52.144;5.360;2022-11-13T03:46:52;14.00;;;6.72;;
70796;SDS011;63842;52.144;5.360;2022-11-13T03:49:38;13.65;;;6.45;;
70796;SDS011;63842;52.144;5.360;2022-11-13T03:52:24;13.13;;;6.50;;
70796;SDS011;63842;52.144;5.360;2022-11-13T03:55:09;13.05;;;6.90;;
70796;SDS011;63842;52.144;5.360;2022-11-13T03:57:57;15.13;;;6.72;;
70796;SDS011;63842;52.144;5.360;2022-11-13T04:00:43;13.38;;;7.15;;
70796;SDS011;63842;52.144;5.360;2022-11-13T04:03:29;13.82;;;6.90;;
70796;SDS011;63842;52.144;5.360;2022-11-13T04:06:15;14.52;;;7.40;;
70796;SDS011;63842;52.144;5.360;2022-11-13T04:09:01;14.27;;;6.90;;
70796;SDS011;63842;52.144;5.360;2022-11-13T04:11:47;12.80;;;6.53;;
70796;SDS011;63842;52.144;5.360;2022-11-13T04:14:33;13.98;;;6.20;;
70796;SDS011;63842;52.144;5.360;2022-11-13T04:17:19;13.38;;;6.57;;
70796;SDS011;63842;52.144;5.360;2022-11-13T04:20:05;13.73;;;6.75;;
70796;SDS011;63842;52.144;5.360;2022-11-13T04:22:51;14.70;;;7.03;;
70796;SDS011;63842;52.144;5.360;2022-11-13T04:25:37;14.32;;;6.57;;
70796;SDS011;63842;52.144;5.360;2022-11-13T04:28:23;13.55;;;6.38;;
70796;SDS011;63842;52.144;5.360;2022-11-13T04:31:09;13.30;;;6.45;;
70796;SDS011;63842;52.144;5.360;2022-11-13T04:33:55;14.07;;;7.07;;
70796;SDS011;63842;52.144;5.360;2022-11-13T04:36:41;12.52;;;6.70;;
70796;SDS011;63842;52.144;5.360;2022-11-13T04:39:27;12.70;;;6.80;;
70796;SDS011;63842;52.144;5.360;2022-11-13T04:42:13;15.02;;;7.10;;
70796;SDS011;63842;52.144;5.360;2022-11-13T04:45:19;12.27;;;6.32;;
70796;SDS011;63842;52.144;5.360;2022-11-13T04:48:06;13.63;;;6.65;;
70796;SDS011;63842;52.144;5.360;2022-11-13T04:50:51;14.45;;;6.45;;
70796;SDS011;63842;52.144;5.360;2022-11-13T04:53:37;17.52;;;7.18;;
70796;SDS011;63842;52.144;5.360;2022-11-13T04:56:23;13.75;;;6.85;;
70796;SDS011;63842;52.144;5.360;2022-11-13T04:59:10;13.13;;;6.50;;
70796;SDS011;63842;52.144;5.360;2022-11-13T05:01:56;13.88;;;6.90;;
70796;SDS011;63842;52.144;5.360;2022-11-13T05:04:42;14.13;;;7.00;;
70796;SDS011;63842;52.144;5.360;2022-11-13T05:07:27;14.50;;;7.38;;
70796;SDS011;63842;52.144;5.360;2022-11-13T05:10:13;12.48;;;6.43;;
70796;SDS011;63842;52.144;5.360;2022-11-13T05:13:00;14.57;;;6.60;;
70796;SDS011;63842;52.144;5.360;2022-11-13T05:15:46;15.70;;;6.45;;
70796;SDS011;63842;52.144;5.360;2022-11-13T05:18:32;12.85;;;6.68;;
70796;SDS011;63842;52.144;5.360;2022-11-13T05:21:18;14.13;;;6.55;;
70796;SDS011;63842;52.144;5.360;2022-11-13T05:24:04;13.60;;;7.15;;
70796;SDS011;63842;52.144;5.360;2022-11-13T05:26:50;15.18;;;6.85;;
70796;SDS011;63842;52.144;5.360;2022-11-13T05:29:36;13.07;;;6.32;;
70796;SDS011;63842;52.144;5.360;2022-11-13T05:32:22;13.32;;;6.50;;
70796;SDS011;63842;52.144;5.360;2022-11-13T05:35:08;12.75;;;6.60;;
70796;SDS011;63842;52.144;5.360;2022-11-13T05:37:54;15.05;;;6.95;;
70796;SDS011;63842;52.144;5.360;2022-11-13T05:40:40;13.15;;;6.53;;
70796;SDS011;63842;52.144;5.360;2022-11-13T05:43:26;13.88;;;7.20;;
70796;SDS011;63842;52.144;5.360;2022-11-13T05:46:13;15.65;;;6.78;;
70796;SDS011;63842;52.144;5.360;2022-11-13T05:49:00;14.40;;;6.97;;
70796;SDS011;63842;52.144;5.360;2022-11-13T05:51:46;13.95;;;7.05;;
70796;SDS011;63842;52.144;5.360;2022-11-13T05:54:32;13.40;;;7.07;;
70796;SDS011;63842;52.144;5.360;2022-11-13T05:57:18;14.80;;;7.38;;
70796;SDS011;63842;52.144;5.360;2022-11-13T06:00:04;14.02;;;7.22;;
70796;SDS011;63842;52.144;5.360;2022-11-13T06:02:50;13.02;;;6.78;;
70796;SDS011;63842;52.144;5.360;2022-11-13T06:05:36;14.07;;;6.63;;
70796;SDS011;63842;52.144;5.360;2022-11-13T06:08:22;13.20;;;6.80;;
70796;SDS011;63842;52.144;5.360;2022-11-13T06:11:13;14.57;;;6.53;;
70796;SDS011;63842;52.144;5.360;2022-11-13T06:14:00;12.90;;;6.60;;
70796;SDS011;63842;52.144;5.360;2022-11-13T06:16:46;14.68;;;6.85;;
70796;SDS011;63842;52.144;5.360;2022-11-13T06:19:31;13.00;;;6.88;;
70796;SDS011;63842;52.144;5.360;2022-11-13T06:22:17;13.32;;;6.15;;
70796;SDS011;63842;52.144;5.360;2022-11-13T06:25:05;14.00;;;6.55;;
70796;SDS011;63842;52.144;5.360;2022-11-13T06:27:54;13.68;;;6.63;;
70796;SDS011;63842;52.144;5.360;2022-11-13T06:30:40;13.43;;;6.30;;
70796;SDS011;63842;52.144;5.360;2022-11-13T06:33:27;12.75;;;6.38;;
70796;SDS011;63842;52.144;5.360;2022-11-13T06:36:20;12.07;;;6.55;;
70796;SDS011;63842;52.144;5.360;2022-11-13T06:39:07;13.02;;;5.90;;
70796;SDS011;63842;52.144;5.360;2022-11-13T06:41:53;12.30;;;5.53;;
70796;SDS011;63842;52.144;5.360;2022-11-13T06:44:39;12.07;;;5.68;;
70796;SDS011;63842;52.144;5.360;2022-11-13T06:47:25;12.65;;;5.60;;
70796;SDS011;63842;52.144;5.360;2022-11-13T06:50:12;11.18;;;5.72;;
70796;SDS011;63842;52.144;5.360;2022-11-13T06:52:57;13.02;;;5.50;;
70796;SDS011;63842;52.144;5.360;2022-11-13T06:55:44;11.60;;;5.53;;
70796;SDS011;63842;52.144;5.360;2022-11-13T06:58:31;10.57;;;5.40;;
70796;SDS011;63842;52.144;5.360;2022-11-13T07:01:18;10.88;;;4.82;;
70796;SDS011;63842;52.144;5.360;2022-11-13T07:04:05;10.35;;;4.82;;
70796;SDS011;63842;52.144;5.360;2022-11-13T07:06:51;13.70;;;5.35;;
70796;SDS011;63842;52.144;5.360;2022-11-13T07:09:37;11.35;;;5.03;;
70796;SDS011;63842;52.144;5.360;2022-11-13T07:12:23;10.93;;;5.40;;
70796;SDS011;63842;52.144;5.360;2022-11-13T07:15:09;11.90;;;5.35;;
70796;SDS011;63842;52.144;5.360;2022-11-13T07:17:55;11.50;;;5.43;;
70796;SDS011;63842;52.144;5.360;2022-11-13T07:20:44;10.48;;;5.07;;
70796;SDS011;63842;52.144;5.360;2022-11-13T07:23:30;11.95;;;5.47;;
70796;SDS011;63842;52.144;5.360;2022-11-13T07:26:16;10.30;;;5.28;;
70796;SDS011;63842;52.144;5.360;2022-11-13T07:29:02;12.18;;;5.75;;
70796;SDS011;63842;52.144;5.360;2022-11-13T07:31:48;11.50;;;5.45;;
70796;SDS011;63842;52.144;5.360;2022-11-13T07:34:34;11.23;;;5.55;;
70796;SDS011;63842;52.144;5.360;2022-11-13T07:37:20;12.13;;;5.57;;
70796;SDS011;63842;52.144;5.360;2022-11-13T07:40:06;9.75;;;5.13;;
70796;SDS011;63842;52.144;5.360;2022-11-13T07:42:58;11.85;;;5.50;;
70796;SDS011;63842;52.144;5.360;2022-11-13T07:45:45;12.48;;;6.53;;
70796;SDS011;63842;52.144;5.360;2022-11-13T07:48:30;11.88;;;6.07;;
70796;SDS011;63842;52.144;5.360;2022-11-13T07:51:16;13.23;;;5.95;;
70796;SDS011;63842;52.144;5.360;2022-11-13T07:54:02;12.10;;;6.18;;
70796;SDS011;63842;52.144;5.360;2022-11-13T07:56:48;11.95;;;6.28;;
70796;SDS011;63842;52.144;5.360;2022-11-13T07:59:33;12.88;;;6.35;;
70796;SDS011;63842;52.144;5.360;2022-11-13T08:02:20;12.13;;;6.30;;
70796;SDS011;63842;52.144;5.360;2022-11-13T08:05:10;12.15;;;6.60;;
70796;SDS011;63842;52.144;5.360;2022-11-13T08:07:56;12.30;;;6.32;;
70796;SDS011;63842;52.144;5.360;2022-11-13T08:10:42;12.88;;;6.88;;
70796;SDS011;63842;52.144;5.360;2022-11-13T08:13:28;14.43;;;6.95;;
70796;SDS011;63842;52.144;5.360;2022-11-13T08:16:14;15.93;;;8.25;;
70796;SDS011;63842;52.144;5.360;2022-11-13T08:19:00;15.48;;;7.63;;
70796;SDS011;63842;52.144;5.360;2022-11-13T08:21:46;15.52;;;7.18;;
70796;SDS011;63842;52.144;5.360;2022-11-13T08:24:32;15.77;;;8.38;;
70796;SDS011;63842;52.144;5.360;2022-11-13T08:27:19;14.07;;;7.30;;
70796;SDS011;63842;52.144;5.360;2022-11-13T08:30:05;14.68;;;8.13;;
70796;SDS011;63842;52.144;5.360;2022-11-13T08:32:51;14.82;;;7.53;;
70796;SDS011;63842;52.144;5.360;2022-11-13T08:35:37;13.82;;;7.75;;
70796;SDS011;63842;52.144;5.360;2022-11-13T08:38:25;14.18;;;7.40;;
70796;SDS011;63842;52.144;5.360;2022-11-13T08:41:12;14.20;;;7.57;;
70796;SDS011;63842;52.144;5.360;2022-11-13T08:43:57;15.30;;;7.82;;
70796;SDS011;63842;52.144;5.360;2022-11-13T08:46:43;14.38;;;7.63;;
70796;SDS011;63842;52.144;5.360;2022-11-13T08:49:29;17.23;;;8.73;;
70796;SDS011;63842;52.144;5.360;2022-11-13T08:52:15;15.45;;;8.25;;
70796;SDS011;63842;52.144;5.360;2022-11-13T08:55:01;17.40;;;8.75;;
70796;SDS011;63842;52.144;5.360;2022-11-13T08:57:47;13.20;;;7.60;;
70796;SDS011;63842;52.144;5.360;2022-11-13T09:00:33;14.93;;;8.52;;
70796;SDS011;63842;52.144;5.360;2022-11-13T09:03:19;15.70;;;8.27;;
70796;SDS011;63842;52.144;5.360;2022-11-13T09:06:05;18.30;;;8.68;;
70796;SDS011;63842;52.144;5.360;2022-11-13T09:08:51;16.10;;;8.75;;
70796;SDS011;63842;52.144;5.360;2022-11-13T09:11:37;14.70;;;8.00;;
70796;SDS011;63842;52.144;5.360;2022-11-13T09:14:23;14.15;;;7.93;;
70796;SDS011;63842;52.144;5.360;2022-11-13T09:17:09;18.13;;;9.07;;
70796;SDS011;63842;52.144;5.360;2022-11-13T09:19:55;15.20;;;8.68;;
70796;SDS011;63842;52.144;5.360;2022-11-13T09:22:47;15.55;;;8.23;;
70796;SDS011;63842;52.144;5.360;2022-11-13T09:25:34;16.73;;;8.57;;
70796;SDS011;63842;52.144;5.360;2022-11-13T09:28:22;15.10;;;8.10;;
70796;SDS011;63842;52.144;5.360;2022-11-13T09:31:08;14.70;;;8.50;;
70796;SDS011;63842;52.144;5.360;2022-11-13T09:33:54;15.43;;;8.55;;
70796;SDS011;63842;52.144;5.360;2022-11-13T09:36:40;15.27;;;7.93;;
70796;SDS011;63842;52.144;5.360;2022-11-13T09:39:25;16.40;;;8.38;;
70796;SDS011;63842;52.144;5.360;2022-11-13T09:42:20;15.15;;;8.50;;
70796;SDS011;63842;52.144;5.360;2022-11-13T09:45:09;15.73;;;8.40;;
70796;SDS011;63842;52.144;5.360;2022-11-13T09:48:02;14.13;;;7.88;;
70796;SDS011;63842;52.144;5.360;2022-11-13T09:50:52;14.63;;;7.47;;
70796;SDS011;63842;52.144;5.360;2022-11-13T09:53:37;14.70;;;7.45;;
70796;SDS011;63842;52.144;5.360;2022-11-13T09:56:30;15.88;;;8.48;;
70796;SDS011;63842;52.144;5.360;2022-11-13T09:59:27;15.73;;;8.00;;
70796;SDS011;63842;52.144;5.360;2022-11-13T10:02:17;16.23;;;7.75;;
70796;SDS011;63842;52.144;5.360;2022-11-13T10:05:10;15.45;;;7.95;;
70796;SDS011;63842;52.144;5.360;2022-11-13T10:08:14;14.27;;;7.35;;
70796;SDS011;63842;52.144;5.360;2022-11-13T10:11:08;14.10;;;7.28;;
70796;SDS011;63842;52.144;5.360;2022-11-13T10:14:00;15.10;;;7.18;;
70796;SDS011;63842;52.144;5.360;2022-11-13T10:16:56;16.85;;;7.47;;
70796;SDS011;63842;52.144;5.360;2022-11-13T10:22:39;14.05;;;6.68;;
70796;SDS011;63842;52.144;5.360;2022-11-13T10:25:27;15.18;;;7.38;;
70796;SDS011;63842;52.144;5.360;2022-11-13T10:28:17;13.43;;;7.00;;
70796;SDS011;63842;52.144;5.360;2022-11-13T10:31:24;13.23;;;7.13;;
70796;SDS011;63842;52.144;5.360;2022-11-13T10:34:11;13.40;;;7.22;;
70796;SDS011;63842;52.144;5.360;2022-11-13T10:39:58;11.77;;;6.22;;
70796;SDS011;63842;52.144;5.360;2022-11-13T10:42:44;13.77;;;7.20;;
70796;SDS011;63842;52.144;5.360;2022-11-13T10:45:30;13.32;;;6.70;;
70796;SDS011;63842;52.144;5.360;2022-11-13T10:48:20;14.93;;;6.60;;
70796;SDS011;63842;52.144;5.360;2022-11-13T10:51:23;12.90;;;6.57;;
70796;SDS011;63842;52.144;5.360;2022-11-13T10:54:22;12.68;;;6.35;;
70796;SDS011;63842;52.144;5.360;2022-11-13T10:57:18;13.25;;;6.55;;
70796;SDS011;63842;52.144;5.360;2022-11-13T11:00:23;15.70;;;6.18;;
70796;SDS011;63842;52.144;5.360;2022-11-13T11:03:13;13.13;;;6.13;;
70796;SDS011;63842;52.144;5.360;2022-11-13T11:06:06;13.73;;;5.93;;
70796;SDS011;63842;52.144;5.360;2022-11-13T11:08:53;12.98;;;6.30;;
70796;SDS011;63842;52.144;5.360;2022-11-13T11:12:00;12.68;;;6.50;;
70796;SDS011;63842;52.144;5.360;2022-11-13T11:15:19;12.93;;;6.50;;
70796;SDS011;63842;52.144;5.360;2022-11-13T11:18:11;16.23;;;6.43;;
70796;SDS011;63842;52.144;5.360;2022-11-13T11:21:05;12.75;;;6.40;;
70796;SDS011;63842;52.144;5.360;2022-11-13T11:23:56;12.05;;;6.07;;
70796;SDS011;63842;52.144;5.360;2022-11-13T11:26:45;15.65;;;6.82;;
70796;SDS011;63842;52.144;5.360;2022-11-13T11:29:50;12.50;;;6.35;;
70796;SDS011;63842;52.144;5.360;2022-11-13T11:32:47;12.52;;;7.07;;
70796;SDS011;63842;52.144;5.360;2022-11-13T11:35:45;13.55;;;6.53;;
70796;SDS011;63842;52.144;5.360;2022-11-13T11:38:49;14.73;;;6.88;;
70796;SDS011;63842;52.144;5.360;2022-11-13T11:42:09;14.07;;;6.97;;
70796;SDS011;63842;52.144;5.360;2022-11-13T11:47:53;14.68;;;6.22;;
70796;SDS011;63842;52.144;5.360;2022-11-13T11:56:20;12.65;;;6.38;;
70796;SDS011;63842;52.144;5.360;2022-11-13T12:14:17;10.40;;;5.35;;
70796;SDS011;63842;52.144;5.360;2022-11-13T12:26:50;13.45;;;5.53;;
70796;SDS011;63842;52.144;5.360;2022-11-13T12:35:25;13.13;;;6.07;;
70796;SDS011;63842;52.144;5.360;2022-11-13T12:41:01;10.95;;;5.85;;
70796;SDS011;63842;52.144;5.360;2022-11-13T12:47:08;11.80;;;5.65;;
70796;SDS011;63842;52.144;5.360;2022-11-13T12:49:58;13.82;;;5.93;;
70796;SDS011;63842;52.144;5.360;2022-11-13T12:52:59;12.52;;;6.07;;
70796;SDS011;63842;52.144;5.360;2022-11-13T12:55:53;11.00;;;5.50;;
70796;SDS011;63842;52.144;5.360;2022-11-13T13:05:02;12.10;;;5.28;;
70796;SDS011;63842;52.144;5.360;2022-11-13T13:10:44;11.80;;;5.40;;
70796;SDS011;63842;52.144;5.360;2022-11-13T13:13:43;11.13;;;5.13;;
70796;SDS011;63842;52.144;5.360;2022-11-13T13:16:30;13.20;;;5.00;;
70796;SDS011;63842;52.144;5.360;2022-11-13T13:19:26;10.52;;;5.28;;
70796;SDS011;63842;52.144;5.360;2022-11-13T13:22:24;9.63;;;3.80;;
70796;SDS011;63842;52.144;5.360;2022-11-13T13:25:29;8.77;;;3.35;;
70796;SDS011;63842;52.144;5.360;2022-11-13T13:28:16;8.98;;;3.13;;
70796;SDS011;63842;52.144;5.360;2022-11-13T13:40:17;8.48;;;2.90;;
70796;SDS011;63842;52.144;5.360;2022-11-13T13:48:53;8.48;;;2.90;;
70796;SDS011;63842;52.144;5.360;2022-11-13T13:51:41;8.93;;;2.90;;
70796;SDS011;63842;52.144;5.360;2022-11-13T13:54:30;7.22;;;2.75;;
70796;SDS011;63842;52.144;5.360;2022-11-13T13:57:18;9.73;;;3.00;;
70796;SDS011;63842;52.144;5.360;2022-11-13T14:00:07;16.92;;;4.07;;
70796;SDS011;63842;52.144;5.360;2022-11-13T14:02:56;8.80;;;2.50;;
70796;SDS011;63842;52.144;5.360;2022-11-13T14:05:42;7.25;;;2.67;;
70796;SDS011;63842;52.144;5.360;2022-11-13T14:08:28;10.77;;;3.33;;
70796;SDS011;63842;52.144;5.360;2022-11-13T14:11:19;8.80;;;2.70;;
70796;SDS011;63842;52.144;5.360;2022-11-13T14:14:09;6.43;;;2.25;;
70796;SDS011;63842;52.144;5.360;2022-11-13T14:19:48;6.50;;;2.60;;
70796;SDS011;63842;52.144;5.360;2022-11-13T14:22:35;8.77;;;2.97;;
70796;SDS011;63842;52.144;5.360;2022-11-13T14:25:22;6.25;;;2.38;;
70796;SDS011;63842;52.144;5.360;2022-11-13T14:28:14;10.48;;;3.40;;
70796;SDS011;63842;52.144;5.360;2022-11-13T14:31:05;7.15;;;2.88;;
70796;SDS011;63842;52.144;5.360;2022-11-13T14:33:53;7.78;;;3.03;;
70796;SDS011;63842;52.144;5.360;2022-11-13T14:36:39;8.10;;;2.80;;
70796;SDS011;63842;52.144;5.360;2022-11-13T14:39:26;7.47;;;2.72;;
70796;SDS011;63842;52.144;5.360;2022-11-13T14:42:17;7.45;;;2.60;;
70796;SDS011;63842;52.144;5.360;2022-11-13T14:45:24;6.88;;;2.60;;
70796;SDS011;63842;52.144;5.360;2022-11-13T14:48:18;6.60;;;2.45;;
70796;SDS011;63842;52.144;5.360;2022-11-13T14:51:04;7.47;;;2.50;;
70796;SDS011;63842;52.144;5.360;2022-11-13T16:21:18;9.45;;;4.32;;
70796;SDS011;63842;52.144;5.360;2022-11-13T16:24:05;12.07;;;4.60;;
70796;SDS011;63842;52.144;5.360;2022-11-13T16:26:53;10.55;;;4.45;;
70796;SDS011;63842;52.144;5.360;2022-11-13T16:29:40;10.48;;;4.63;;
70796;SDS011;63842;52.144;5.360;2022-11-13T16:32:26;10.65;;;4.55;;
70796;SDS011;63842;52.144;5.360;2022-11-13T16:35:16;10.45;;;5.18;;
70796;SDS011;63842;52.144;5.360;2022-11-13T16:38:02;10.45;;;4.82;;
70796;SDS011;63842;52.144;5.360;2022-11-13T16:40:48;11.88;;;5.60;;
70796;SDS011;63842;52.144;5.360;2022-11-13T16:43:34;11.20;;;5.65;;
70796;SDS011;63842;52.144;5.360;2022-11-13T16:49:12;13.10;;;5.72;;
70796;SDS011;63842;52.144;5.360;2022-11-13T16:52:03;10.93;;;5.60;;
70796;SDS011;63842;52.144;5.360;2022-11-13T16:54:49;12.27;;;5.68;;
70796;SDS011;63842;52.144;5.360;2022-11-13T16:57:35;12.52;;;6.10;;
70796;SDS011;63842;52.144;5.360;2022-11-13T17:00:22;13.13;;;6.28;;
70796;SDS011;63842;52.144;5.360;2022-11-13T17:03:09;14.10;;;6.03;;
70796;SDS011;63842;52.144;5.360;2022-11-13T17:05:55;14.25;;;6.55;;
70796;SDS011;63842;52.144;5.360;2022-11-13T17:08:41;13.35;;;6.43;;
70796;SDS011;63842;52.144;5.360;2022-11-13T17:11:28;13.70;;;6.47;;
70796;SDS011;63842;52.144;5.360;2022-11-13T17:14:14;13.25;;;6.15;;
70796;SDS011;63842;52.144;5.360;2022-11-13T17:17:00;12.57;;;6.43;;
70796;SDS011;63842;52.144;5.360;2022-11-13T17:19:46;11.93;;;6.00;;
70796;SDS011;63842;52.144;5.360;2022-11-13T17:22:32;12.40;;;6.47;;
70796;SDS011;63842;52.144;5.360;2022-11-13T17:25:18;14.07;;;6.78;;
70796;SDS011;63842;52.144;5.360;2022-11-13T17:28:07;15.10;;;7.40;;
70796;SDS011;63842;52.144;5.360;2022-11-13T17:30:53;13.65;;;7.68;;
70796;SDS011;63842;52.144;5.360;2022-11-13T17:33:43;16.05;;;7.45;;
70796;SDS011;63842;52.144;5.360;2022-11-13T17:36:29;12.88;;;7.32;;
70796;SDS011;63842;52.144;5.360;2022-11-13T17:39:15;13.48;;;6.85;;
70796;SDS011;63842;52.144;5.360;2022-11-13T17:42:01;12.98;;;7.00;;
70796;SDS011;63842;52.144;5.360;2022-11-13T17:44:47;13.43;;;6.78;;
70796;SDS011;63842;52.144;5.360;2022-11-13T17:47:33;13.63;;;6.88;;
70796;SDS011;63842;52.144;5.360;2022-11-13T17:50:19;13.38;;;7.10;;
70796;SDS011;63842;52.144;5.360;2022-11-13T17:53:05;14.68;;;7.45;;
70796;SDS011;63842;52.144;5.360;2022-11-13T17:55:52;13.43;;;7.10;;
70796;SDS011;63842;52.144;5.360;2022-11-13T17:58:40;14.68;;;7.68;;
70796;SDS011;63842;52.144;5.360;2022-11-13T18:01:26;14.82;;;7.57;;
70796;SDS011;63842;52.144;5.360;2022-11-13T18:04:13;15.93;;;8.02;;
70796;SDS011;63842;52.144;5.360;2022-11-13T18:06:59;16.30;;;8.73;;
70796;SDS011;63842;52.144;5.360;2022-11-13T18:09:45;15.75;;;8.50;;
70796;SDS011;63842;52.144;5.360;2022-11-13T18:12:31;15.82;;;8.20;;
70796;SDS011;63842;52.144;5.360;2022-11-13T18:15:17;16.95;;;8.43;;
70796;SDS011;63842;52.144;5.360;2022-11-13T18:18:03;17.92;;;8.75;;
70796;SDS011;63842;52.144;5.360;2022-11-13T18:20:49;18.15;;;8.55;;
70796;SDS011;63842;52.144;5.360;2022-11-13T18:23:35;17.10;;;8.82;;
70796;SDS011;63842;52.144;5.360;2022-11-13T18:26:22;18.67;;;9.50;;
70796;SDS011;63842;52.144;5.360;2022-11-13T18:29:08;16.38;;;9.40;;
70796;SDS011;63842;52.144;5.360;2022-11-13T18:31:54;18.05;;;9.70;;
70796;SDS011;63842;52.144;5.360;2022-11-13T18:34:40;19.02;;;10.40;;
70796;SDS011;63842;52.144;5.360;2022-11-13T18:37:26;19.65;;;10.48;;
70796;SDS011;63842;52.144;5.360;2022-11-13T18:40:12;16.55;;;9.90;;
70796;SDS011;63842;52.144;5.360;2022-11-13T18:42:58;20.85;;;10.60;;
70796;SDS011;63842;52.144;5.360;2022-11-13T18:45:43;22.58;;;10.82;;
70796;SDS011;63842;52.144;5.360;2022-11-13T18:48:40;23.52;;;11.55;;
70796;SDS011;63842;52.144;5.360;2022-11-13T18:51:26;21.90;;;11.35;;
70796;SDS011;63842;52.144;5.360;2022-11-13T18:54:12;20.65;;;10.88;;
70796;SDS011;63842;52.144;5.360;2022-11-13T18:56:59;21.98;;;12.18;;
70796;SDS011;63842;52.144;5.360;2022-11-13T18:59:45;26.25;;;12.40;;
70796;SDS011;63842;52.144;5.360;2022-11-13T19:02:31;20.33;;;11.55;;
70796;SDS011;63842;52.144;5.360;2022-11-13T19:05:17;21.40;;;11.43;;
70796;SDS011;63842;52.144;5.360;2022-11-13T19:08:03;22.80;;;12.10;;
70796;SDS011;63842;52.144;5.360;2022-11-13T19:10:49;20.08;;;11.30;;
70796;SDS011;63842;52.144;5.360;2022-11-13T19:13:35;18.38;;;11.20;;
70796;SDS011;63842;52.144;5.360;2022-11-13T19:16:22;18.63;;;11.20;;
70796;SDS011;63842;52.144;5.360;2022-11-13T19:19:16;19.23;;;11.27;;
70796;SDS011;63842;52.144;5.360;2022-11-13T19:22:02;19.92;;;10.60;;
70796;SDS011;63842;52.144;5.360;2022-11-13T19:24:48;19.20;;;10.60;;
70796;SDS011;63842;52.144;5.360;2022-11-13T19:27:34;17.20;;;10.18;;
70796;SDS011;63842;52.144;5.360;2022-11-13T19:30:20;19.30;;;10.23;;